Time;durP1;ratioP1;P1;durP2;ratioP2;P2;SDS_P1;SDS_P2;PMS_P1;PMS_P2;Temp;Humidity;BMP_temperature;BMP_pressure;BME280_temperature;BME280_humidity;BME280_pressure;Samples;Min_cycle;Max_cycle;Signal;HPM_P1;HPM_P2
2022/10/11 00:01:12;;;;;;;12.23;5.30;;;;;;;42.58;32.64;101251.91;5123861;27;20443;-75
2022/10/11 00:03:38;;;;;;;11.43;4.53;;;;;;;42.35;33.09;101253.28;5121405;27;20196;-73
2022/10/11 00:06:05;;;;;;;12.80;6.33;;;;;;;42.45;32.35;101242.03;5122727;27;20468;-73
2022/10/11 00:08:34;;;;;;;10.10;4.97;;;;;;;42.16;33.33;101245.50;5122873;27;20218;-73
2022/10/11 00:11:04;;;;;;;9.70;4.97;;;;;;;42.13;33.52;101241.50;5123441;27;20422;-73
2022/10/11 00:13:30;;;;;;;9.40;5.60;;;;;;;42.03;33.20;101241.84;5123587;27;20424;-73
2022/10/11 00:15:56;;;;;;;12.40;4.87;;;;;;;42.03;33.41;101230.16;5121077;27;20462;-73
2022/10/11 00:18:23;;;;;;;12.60;5.80;;;;;;;41.95;33.64;101228.25;5123635;27;20430;-73
2022/10/11 00:20:49;;;;;;;13.97;5.20;;;;;;;42.21;33.35;101222.72;5119371;27;20434;-74
2022/10/11 00:23:15;;;;;;;15.83;6.00;;;;;;;41.93;33.57;101214.97;5110704;28;20426;-75
2022/10/11 00:25:41;;;;;;;10.90;5.40;;;;;;;41.73;33.69;101210.97;5111883;28;20416;-75
2022/10/11 00:28:07;;;;;;;16.80;5.40;;;;;;;41.76;34.20;101220.47;5114029;28;20412;-75
2022/10/11 00:30:33;;;;;;;9.80;4.60;;;;;;;41.71;34.07;101212.44;5112307;28;20477;-75
2022/10/11 00:32:59;;;;;;;10.70;4.40;;;;;;;41.73;34.26;101210.97;5112883;28;20178;-75
2022/10/11 00:35:25;;;;;;;9.33;4.40;;;;;;;41.64;34.57;101199.31;5111396;28;20814;-75
2022/10/11 00:37:51;;;;;;;8.17;3.40;;;;;;;41.67;33.75;101201.38;5110234;28;20408;-75
2022/10/11 00:40:19;;;;;;;14.10;4.87;;;;;;;41.48;34.40;101184.59;5110163;28;20415;-75
2022/10/11 00:42:46;;;;;;;10.43;4.40;;;;;;;41.50;34.87;101182.38;5109984;28;20178;-75
2022/10/11 00:45:27;;;;;;;11.20;5.30;;;;;;;41.66;34.27;101188.88;5110181;28;20503;-74
2022/10/11 00:48:03;;;;;;;9.97;4.30;;;;;;;41.74;34.30;101179.94;5110293;28;20419;-73
2022/10/11 00:50:33;;;;;;;10.03;6.93;;;;;;;42.07;33.53;101184.78;5111790;28;20404;-75
2022/10/11 00:53:03;;;;;;;10.87;4.07;;;;;;;41.89;33.95;101191.41;5111956;28;20408;-75
2022/10/11 00:55:36;;;;;;;6.60;3.30;;;;;;;41.90;33.67;101187.56;5111867;28;20479;-74
2022/10/11 00:58:02;;;;;;;11.33;3.90;;;;;;;42.07;33.47;101187.50;5111763;28;20423;-74
2022/10/11 01:00:28;;;;;;;7.77;5.20;;;;;;;42.17;33.22;101184.41;5111902;28;20438;-73
2022/10/11 01:02:54;;;;;;;9.30;5.10;;;;;;;42.03;33.54;101175.63;5111972;28;20420;-74
2022/10/11 01:05:20;;;;;;;9.70;3.97;;;;;;;42.04;33.50;101175.31;5111831;28;20420;-73
2022/10/11 01:07:47;;;;;;;36.43;5.10;;;;;;;42.12;33.62;101171.75;5111806;28;20439;-74
2022/10/11 01:10:13;;;;;;;8.17;4.33;;;;;;;42.21;33.03;101160.03;5111689;28;20424;-73
2022/10/11 01:12:57;;;;;;;18.50;4.37;;;;;;;42.20;33.20;101156.50;5113511;28;20424;-74
2022/10/11 01:15:49;;;;;;;6.87;3.70;;;;;;;42.21;33.20;101157.31;5111321;28;20484;-74
2022/10/11 01:18:40;;;;;;;11.70;4.73;;;;;;;41.97;32.88;101142.31;5113226;28;20392;-73
2022/10/11 01:21:26;;;;;;;8.93;4.90;;;;;;;41.91;33.37;101135.47;5111654;28;20426;-74
2022/10/11 01:24:07;;;;;;;9.93;4.60;;;;;;;41.95;33.19;101135.63;5111674;28;20499;-73
2022/10/11 01:27:02;;;;;;;9.90;5.60;;;;;;;42.07;33.40;101132.97;5111388;28;20444;-73
2022/10/11 01:29:37;;;;;;;10.37;5.63;;;;;;;41.99;33.40;101139.25;5111503;28;20408;-73
2022/10/11 01:32:14;;;;;;;9.80;4.93;;;;;;;41.98;33.17;101132.22;5111502;28;20443;-74
2022/10/11 01:34:50;;;;;;;10.67;4.33;;;;;;;42.03;33.10;101130.09;5111288;28;20907;-74
2022/10/11 01:38:00;;;;;;;12.23;4.60;;;;;;;42.09;33.25;101128.78;5111533;28;20435;-74
2022/10/11 01:40:50;;;;;;;9.53;4.77;;;;;;;41.93;33.66;101116.88;5073800;28;20420;-73
2022/10/11 01:43:19;;;;;;;13.10;5.00;;;;;;;42.10;33.17;101118.69;5111708;28;20426;-73
2022/10/11 01:45:52;;;;;;;10.77;4.53;;;;;;;42.15;33.35;101126.69;5111275;28;20427;-73
2022/10/11 01:48:18;;;;;;;10.13;5.17;;;;;;;42.03;33.59;101130.09;5111334;28;20431;-74
2022/10/11 01:50:45;;;;;;;15.53;5.23;;;;;;;42.07;33.60;101124.81;5112948;28;20427;-74
2022/10/11 01:53:50;;;;;;;11.93;4.60;;;;;;;42.04;33.26;101120.78;5113057;28;20503;-74
2022/10/11 01:56:30;;;;;;;10.30;5.40;;;;;;;42.05;33.30;101105.25;5097468;28;20995;-73
2022/10/11 01:59:44;;;;;;;9.93;4.00;;;;;;;41.98;34.10;101100.31;5111121;27;20428;-74
2022/10/11 02:02:37;;;;;;;9.23;4.57;;;;;;;42.14;33.74;101098.63;5073356;28;20835;-73
2022/10/11 02:05:23;;;;;;;19.07;6.40;;;;;;;41.96;33.85;101085.44;5094274;28;20405;-73
2022/10/11 02:08:11;;;;;;;7.47;4.40;;;;;;;42.06;33.57;101085.06;5123515;27;20814;-74
2022/10/11 02:10:45;;;;;;;7.27;4.10;;;;;;;41.52;34.49;101082.88;5115295;28;20430;-74
2022/10/11 02:13:29;;;;;;;10.60;4.90;;;;;;;41.47;34.51;101076.81;5114879;28;20458;-73
2022/10/11 02:15:59;;;;;;;15.97;5.67;;;;;;;41.46;34.78;101070.56;5114719;27;20521;-74
2022/10/11 02:18:31;;;;;;;9.83;3.87;;;;;;;41.76;33.81;101076.09;5114663;28;20946;-74
2022/10/11 02:21:00;;;;;;;10.47;4.43;;;;;;;41.80;34.06;101077.81;5115087;28;20993;-73
2022/10/11 02:23:32;;;;;;;9.50;5.07;;;;;;;41.86;33.89;101067.53;5114675;28;20412;-74
2022/10/11 02:25:58;;;;;;;8.37;4.33;;;;;;;41.69;34.14;101081.22;5114856;28;20412;-73
2022/10/11 02:28:30;;;;;;;21.90;4.40;;;;;;;41.71;34.04;101074.31;5114551;28;20987;-73
2022/10/11 02:30:59;;;;;;;10.93;4.43;;;;;;;41.70;34.00;101071.91;5114868;28;20904;-73
2022/10/11 02:33:43;;;;;;;8.63;2.63;;;;;;;41.62;34.11;101059.94;5114488;28;20506;-74
2022/10/11 02:36:20;;;;;;;12.10;4.50;;;;;;;41.47;34.82;101068.63;5114566;27;20467;-73
2022/10/11 02:38:55;;;;;;;7.77;4.53;;;;;;;41.68;34.44;101069.53;5114401;28;20460;-74
2022/10/11 02:41:30;;;;;;;15.40;4.50;;;;;;;41.56;34.03;101053.09;5114461;28;20907;-74
2022/10/11 02:44:06;;;;;;;14.30;5.00;;;;;;;41.25;34.73;101059.56;5114365;28;20809;-74
2022/10/11 02:46:33;;;;;;;7.00;4.63;;;;;;;41.64;34.60;101057.69;5114472;28;20420;-74
2022/10/11 02:49:00;;;;;;;16.50;5.50;;;;;;;41.82;34.32;101064.66;5114619;28;20457;-73
2022/10/11 02:51:30;;;;;;;8.57;4.00;;;;;;;41.56;34.16;101063.97;5114270;28;20803;-74
2022/10/11 02:53:56;;;;;;;12.50;4.03;;;;;;;41.73;34.49;101058.41;5114207;28;20420;-74
2022/10/11 02:56:22;;;;;;;12.07;4.17;;;;;;;41.76;34.26;101070.63;5114059;28;20471;-74
2022/10/11 02:58:48;;;;;;;7.67;4.13;;;;;;;41.84;33.77;101076.03;5113972;28;20477;-74
2022/10/11 03:01:14;;;;;;;6.83;3.70;;;;;;;41.91;33.88;101077.44;5114167;28;20423;-74
2022/10/11 03:03:40;;;;;;;8.50;3.77;;;;;;;41.88;33.82;101069.94;5113950;28;20534;-74
2022/10/11 03:06:08;;;;;;;7.20;4.10;;;;;;;41.82;33.45;101072.06;5115546;28;20388;-74
2022/10/11 03:08:34;;;;;;;8.13;4.07;;;;;;;41.95;34.10;101071.00;5114092;27;20875;-74
2022/10/11 03:11:00;;;;;;;8.83;4.60;;;;;;;41.95;33.74;101067.50;5113978;28;20802;-74
2022/10/11 03:13:26;;;;;;;8.57;3.97;;;;;;;41.94;34.02;101063.16;5113474;28;20428;-74
2022/10/11 03:15:54;;;;;;;10.57;3.43;;;;;;;41.90;34.15;101073.91;5113414;28;20481;-73
2022/10/11 03:18:20;;;;;;;12.90;4.17;;;;;;;41.71;34.24;101060.69;5115340;28;20431;-74
2022/10/11 03:20:46;;;;;;;6.97;3.80;;;;;;;41.84;33.83;101064.34;5113697;28;20412;-74
2022/10/11 03:23:12;;;;;;;8.00;4.60;;;;;;;42.03;33.71;101063.91;5115337;28;20407;-74
2022/10/11 03:25:38;;;;;;;11.60;5.93;;;;;;;42.06;33.86;101057.81;5113561;28;20412;-74
2022/10/11 03:28:04;;;;;;;12.83;4.40;;;;;;;42.11;33.57;101072.03;5115271;28;20564;-74
2022/10/11 03:30:30;;;;;;;8.17;5.10;;;;;;;42.09;33.41;101074.28;5113489;28;20932;-74
2022/10/11 03:32:56;;;;;;;5.70;3.53;;;;;;;41.92;33.28;101059.97;5113682;28;20452;-74
2022/10/11 03:35:22;;;;;;;10.30;4.50;;;;;;;42.11;33.50;101068.50;5113309;28;20483;-74
2022/10/11 03:37:49;;;;;;;5.40;3.17;;;;;;;42.03;33.37;101063.91;5113346;28;20737;-74
2022/10/11 03:40:14;;;;;;;11.47;3.97;;;;;;;42.15;33.15;101061.25;5114750;28;20436;-74
2022/10/11 03:42:40;;;;;;;9.10;3.53;;;;;;;42.09;32.84;101057.94;5113196;28;20424;-74
2022/10/11 03:45:08;;;;;;;8.87;4.00;;;;;;;41.95;33.13;101065.56;5114870;28;20405;-74
2022/10/11 03:47:36;;;;;;;16.63;4.37;;;;;;;41.98;33.66;101070.34;5113201;28;20982;-74
2022/10/11 03:50:04;;;;;;;13.00;5.50;;;;;;;42.09;33.19;101055.19;5113104;28;20424;-74
2022/10/11 03:52:30;;;;;;;13.77;5.13;;;;;;;42.02;33.27;101062.31;5114744;28;20408;-74
2022/10/11 03:54:56;;;;;;;10.63;4.20;;;;;;;41.97;33.61;101065.22;5114510;28;20458;-74
2022/10/11 03:57:22;;;;;;;8.20;4.03;;;;;;;41.83;33.56;101055.38;5112825;28;20913;-75
2022/10/11 03:59:48;;;;;;;16.90;4.60;;;;;;;41.88;33.72;101042.69;5112994;28;20426;-76
2022/10/11 04:02:15;;;;;;;12.97;4.20;;;;;;;41.90;33.62;101060.28;5112805;28;20416;-75
2022/10/11 04:04:41;;;;;;;8.23;4.50;;;;;;;41.98;33.63;101066.81;5112891;28;20408;-74
2022/10/11 04:07:07;;;;;;;8.30;4.17;;;;;;;42.07;33.30;101064.84;5112671;28;20414;-74
2022/10/11 04:09:33;;;;;;;8.67;4.27;;;;;;;41.73;33.51;101060.34;5113055;28;20453;-73
2022/10/11 04:11:59;;;;;;;15.00;4.80;;;;;;;41.92;33.51;101068.94;5113376;28;20493;-73
2022/10/11 04:14:26;;;;;;;16.40;5.10;;;;;;;42.01;33.10;101066.16;5112363;28;21101;-73
2022/10/11 04:16:52;;;;;;;12.90;3.93;;;;;;;41.96;33.02;101052.72;5112610;28;20458;-73
2022/10/11 04:19:18;;;;;;;13.70;5.50;;;;;;;42.07;33.00;101060.19;5112777;28;20451;-74
2022/10/11 04:21:44;;;;;;;10.83;4.30;;;;;;;42.01;33.09;101050.63;5112628;28;20927;-74
2022/10/11 04:24:11;;;;;;;6.93;3.63;;;;;;;42.08;32.86;101055.53;5112542;28;20420;-73
2022/10/11 04:26:37;;;;;;;11.87;6.43;;;;;;;42.05;32.66;101058.91;5111612;28;20412;-74
2022/10/11 04:29:04;;;;;;;6.47;4.00;;;;;;;41.93;33.03;101054.19;5113952;28;20643;-74
2022/10/11 04:31:30;;;;;;;8.23;5.50;;;;;;;42.00;32.82;101061.84;5112376;28;20423;-74
2022/10/11 04:33:56;;;;;;;15.80;6.10;;;;;;;41.89;33.15;101061.44;5114022;28;20407;-73
2022/10/11 04:36:23;;;;;;;13.80;5.47;;;;;;;41.70;33.54;101061.81;5113705;28;20206;-73
2022/10/11 04:38:48;;;;;;;11.80;3.80;;;;;;;41.74;33.26;101068.25;5112144;27;20450;-73
2022/10/11 04:41:15;;;;;;;17.80;4.37;;;;;;;41.85;33.04;101061.28;5112172;28;20448;-74
2022/10/11 04:43:41;;;;;;;9.90;4.17;;;;;;;41.57;33.45;101058.19;5112060;28;20208;-73
2022/10/11 04:46:07;;;;;;;13.03;6.10;;;;;;;41.75;33.19;101066.31;5112176;28;20436;-74
2022/10/11 04:48:34;;;;;;;9.07;6.27;;;;;;;41.88;33.14;101073.47;5112129;28;20423;-74
2022/10/11 04:51:00;;;;;;;12.17;7.57;;;;;;;42.01;32.89;101075.13;5112290;28;20443;-73
2022/10/11 04:53:26;;;;;;;12.73;6.83;;;;;;;42.00;32.79;101080.94;5112455;28;20431;-74
2022/10/11 04:56:01;;;;;;;11.10;5.07;;;;;;;41.97;33.08;101087.81;5113497;28;20275;-73
2022/10/11 04:58:28;;;;;;;7.90;5.67;;;;;;;42.01;32.91;101101.59;5095121;28;20476;-73
2022/10/11 05:00:54;;;;;;;8.10;4.20;;;;;;;42.01;32.75;101093.41;5129076;27;20427;-74
2022/10/11 05:03:21;;;;;;;11.17;5.13;;;;;;;42.07;33.10;101105.72;5129151;27;20423;-73
2022/10/11 05:05:47;;;;;;;16.00;8.20;;;;;;;42.07;33.34;101106.53;5111854;28;20499;-74
2022/10/11 05:08:12;;;;;;;20.70;11.60;;;;;;;42.10;33.30;101115.97;5113146;28;20526;-74
2022/10/11 05:10:38;;;;;;;15.97;9.50;;;;;;;42.09;33.42;101107.00;5128860;27;20568;-74
2022/10/11 05:13:04;;;;;;;15.57;10.87;;;;;;;42.17;33.62;101127.16;5123473;27;20634;-74
2022/10/11 05:15:30;;;;;;;14.97;9.90;;;;;;;42.21;33.67;101121.88;5120637;27;20470;-73
2022/10/11 05:17:56;;;;;;;18.13;10.93;;;;;;;42.18;33.33;101126.06;5122910;28;20295;-73
2022/10/11 05:20:22;;;;;;;15.00;9.60;;;;;;;42.17;33.79;101126.38;5125926;28;20180;-73
2022/10/11 05:22:48;;;;;;;15.87;8.73;;;;;;;42.17;33.66;101123.66;5117958;28;20181;-74
2022/10/11 05:25:14;;;;;;;14.87;10.27;;;;;;;42.10;33.81;101122.22;5123846;28;20241;-73
2022/10/11 05:27:40;;;;;;;16.70;9.30;;;;;;;42.11;33.45;101120.28;5122320;28;20183;-74
2022/10/11 05:30:06;;;;;;;16.23;9.80;;;;;;;42.13;33.95;101126.22;5126882;28;20445;-74
2022/10/11 05:32:32;;;;;;;16.50;10.50;;;;;;;42.04;33.64;101112.63;5120266;28;20170;-75
2022/10/11 05:34:58;;;;;;;17.40;11.73;;;;;;;42.06;33.82;101124.00;5121958;28;20451;-74
2022/10/11 05:37:24;;;;;;;16.07;13.93;;;;;;;41.96;33.75;101123.59;5133992;27;20419;-74
2022/10/11 05:39:50;;;;;;;21.87;14.83;;;;;;;42.01;34.03;101128.84;5122716;27;20800;-73
2022/10/11 05:42:16;;;;;;;21.40;15.40;;;;;;;42.00;33.81;101121.81;5133111;27;20310;-73
2022/10/11 05:44:42;;;;;;;19.40;15.00;;;;;;;42.03;33.83;101130.09;5128804;27;20529;-73
2022/10/11 05:47:08;;;;;;;30.27;20.60;;;;;;;42.06;33.67;101131.41;5136106;27;20793;-73
2022/10/11 05:49:34;;;;;;;34.83;22.80;;;;;;;42.07;33.89;101133.78;5137644;27;20176;-72
2022/10/11 05:52:00;;;;;;;28.17;20.87;;;;;;;42.09;33.73;101136.97;5137647;27;20237;-70
2022/10/11 05:54:29;;;;;;;28.87;20.90;;;;;;;42.08;34.00;101137.31;5132767;27;20616;-73
2022/10/11 05:56:55;;;;;;;27.60;21.07;;;;;;;42.11;34.21;101145.63;5125338;27;20654;-75
2022/10/11 05:59:21;;;;;;;31.67;21.13;;;;;;;42.08;33.85;101140.81;5122909;27;20460;-79
2022/10/11 06:01:48;;;;;;;27.40;21.00;;;;;;;41.97;34.00;101117.78;5117742;27;20190;-76
2022/10/11 06:04:15;;;;;;;31.23;18.07;;;;;;;42.08;33.68;101143.56;5132143;27;20181;-77
2022/10/11 06:06:41;;;;;;;28.93;19.37;;;;;;;42.12;34.21;101152.69;5118232;27;20849;-77
2022/10/11 06:09:07;;;;;;;31.83;17.27;;;;;;;42.06;33.83;101150.47;5118715;27;21008;-76
2022/10/11 06:11:33;;;;;;;40.67;25.77;;;;;;;42.05;33.48;101160.56;5121649;27;20182;-77
2022/10/11 06:13:59;;;;;;;35.07;22.53;;;;;;;42.07;33.91;101165.69;5125456;27;20200;-76
2022/10/11 06:16:26;;;;;;;35.33;23.20;;;;;;;42.16;33.87;101174.66;5125755;27;20970;-76
2022/10/11 06:18:55;;;;;;;28.70;21.77;;;;;;;42.16;33.70;101179.25;5122576;27;20172;-72
2022/10/11 06:21:22;;;;;;;33.73;21.50;;;;;;;42.30;33.47;101172.50;5135384;27;20415;-71
2022/10/11 06:23:50;;;;;;;43.80;29.97;;;;;;;42.33;33.39;101173.75;5128240;27;20551;-75
2022/10/11 06:26:17;;;;;;;28.37;19.57;;;;;;;42.27;33.38;101184.06;5117373;27;20435;-76
2022/10/11 06:28:43;;;;;;;29.07;17.87;;;;;;;42.27;33.51;101200.41;5127577;27;20430;-74
2022/10/11 06:31:10;;;;;;;18.10;13.50;;;;;;;42.31;33.56;101201.34;5120264;27;21014;-77
2022/10/11 06:33:36;;;;;;;17.13;9.40;;;;;;;42.19;33.31;101203.19;5114526;28;20497;-75
2022/10/11 06:36:06;;;;;;;20.73;9.10;;;;;;;42.31;33.23;101209.53;5114558;28;20513;-75
2022/10/11 06:38:31;;;;;;;12.83;8.00;;;;;;;42.39;32.94;101208.69;5114512;28;21047;-74
2022/10/11 06:41:10;;;;;;;17.13;6.43;;;;;;;42.47;32.68;101214.41;5114771;27;20421;-75
2022/10/11 06:43:36;;;;;;;12.53;7.70;;;;;;;42.43;32.69;101211.56;5122090;27;20420;-76
2022/10/11 06:46:02;;;;;;;9.70;5.37;;;;;;;42.38;32.72;101215.28;5123712;27;20424;-76
2022/10/11 06:48:30;;;;;;;11.03;5.50;;;;;;;42.39;32.87;101214.13;5122330;27;20431;-75
2022/10/11 06:50:58;;;;;;;10.37;3.90;;;;;;;42.38;32.98;101228.91;5124315;27;20182;-75
2022/10/11 06:53:24;;;;;;;16.20;4.57;;;;;;;42.32;32.65;101229.41;5123100;27;20415;-75
2022/10/11 06:55:50;;;;;;;7.80;4.10;;;;;;;42.31;32.54;101223.16;5123418;27;20459;-76
2022/10/11 06:58:16;;;;;;;6.30;4.27;;;;;;;42.25;33.03;101234.59;5121373;27;20944;-79
2022/10/11 07:00:42;;;;;;;13.57;6.10;;;;;;;42.26;32.79;101236.19;5124053;27;20245;-78
2022/10/11 07:03:07;;;;;;;10.23;4.83;;;;;;;42.10;32.72;101238.63;5124214;27;20914;-79
2022/10/11 07:05:34;;;;;;;10.73;5.17;;;;;;;42.17;33.05;101240.84;5124400;27;20178;-80
2022/10/11 07:08:01;;;;;;;6.70;4.27;;;;;;;42.12;33.21;101247.28;5122214;27;20705;-78
2022/10/11 07:10:27;;;;;;;19.70;7.47;;;;;;;42.11;33.41;101246.50;5123858;27;20534;-80
2022/10/11 07:12:53;;;;;;;11.27;5.50;;;;;;;42.10;32.68;101246.78;5123948;27;20454;-80
2022/10/11 07:15:18;;;;;;;8.80;5.00;;;;;;;42.17;33.22;101244.38;5122292;27;20554;-80
2022/10/11 07:17:44;;;;;;;11.27;4.80;;;;;;;42.18;33.11;101246.00;5119320;27;20990;-80
2022/10/11 07:20:11;;;;;;;8.03;3.87;;;;;;;42.16;32.67;101259.16;5113602;28;20174;-80
2022/10/11 07:22:37;;;;;;;7.60;3.40;;;;;;;41.97;33.12;101226.00;5113242;28;20528;-79
2022/10/11 07:25:03;;;;;;;8.63;4.30;;;;;;;42.30;32.66;101253.50;5113675;28;20440;-80
2022/10/11 07:27:29;;;;;;;7.63;4.00;;;;;;;42.22;32.96;101252.38;5114102;28;20512;-79
2022/10/11 07:29:55;;;;;;;9.50;4.60;;;;;;;42.38;32.93;101245.25;5113750;28;20909;-80
2022/10/11 07:32:21;;;;;;;15.00;6.20;;;;;;;42.55;32.37;101244.38;5119735;27;20980;-80
2022/10/11 07:34:47;;;;;;;12.57;4.93;;;;;;;42.40;32.52;101251.19;5130838;27;20541;-76
2022/10/11 07:37:13;;;;;;;7.17;3.63;;;;;;;42.41;32.42;101268.34;5133949;27;20184;-71
2022/10/11 07:39:38;;;;;;;7.63;3.93;;;;;;;42.39;32.47;101263.22;5134243;27;20197;-71
2022/10/11 07:42:05;;;;;;;8.33;5.43;;;;;;;42.55;32.06;101274.38;5134113;27;20557;-71
2022/10/11 07:44:33;;;;;;;12.83;4.73;;;;;;;42.55;31.78;101287.22;5135641;27;20154;-71
2022/10/11 07:46:58;;;;;;;8.60;3.73;;;;;;;42.63;30.97;101294.59;5133650;27;20910;-71
2022/10/11 07:49:24;;;;;;;8.37;3.27;;;;;;;42.68;31.47;101302.59;5135346;27;20482;-71
2022/10/11 07:51:50;;;;;;;10.67;3.57;;;;;;;42.50;31.44;101293.66;5133184;27;20181;-71
2022/10/11 07:54:16;;;;;;;11.67;3.33;;;;;;;42.51;31.69;101297.97;5131506;27;20675;-72
2022/10/11 07:56:42;;;;;;;13.30;3.73;;;;;;;42.60;31.87;101301.50;5132236;27;20241;-72
2022/10/11 07:59:09;;;;;;;12.60;4.80;;;;;;;42.72;31.66;101308.97;5131481;27;20181;-72
2022/10/11 08:01:35;;;;;;;13.53;5.37;;;;;;;42.70;31.87;101310.44;5131524;27;20209;-72
2022/10/11 08:04:01;;;;;;;14.00;4.53;;;;;;;42.84;31.53;101311.78;5131574;27;20476;-71
2022/10/11 08:06:31;;;;;;;7.93;4.27;;;;;;;42.90;31.71;101332.31;5131373;27;20443;-71
2022/10/11 08:08:58;;;;;;;8.53;3.67;;;;;;;42.91;31.58;101328.47;5133415;27;20470;-71
2022/10/11 08:11:34;;;;;;;9.83;3.17;;;;;;;42.93;31.59;101339.84;5133225;27;20938;-72
2022/10/11 08:14:01;;;;;;;9.57;4.20;;;;;;;42.97;31.58;101341.91;5133561;27;20451;-73
2022/10/11 08:16:27;;;;;;;10.27;3.30;;;;;;;43.07;31.77;101341.56;5133140;27;20487;-74
2022/10/11 08:18:55;;;;;;;10.43;3.60;;;;;;;42.95;31.55;101346.91;5133121;27;20451;-74
2022/10/11 08:21:21;;;;;;;8.50;2.83;;;;;;;42.90;31.70;101336.97;5133161;27;20478;-74
2022/10/11 08:23:47;;;;;;;12.77;5.00;;;;;;;43.07;31.44;101347.00;5132976;27;20521;-75
2022/10/11 08:26:14;;;;;;;7.27;3.20;;;;;;;43.20;31.50;101345.97;5133054;27;20538;-75
2022/10/11 08:28:39;;;;;;;7.60;2.73;;;;;;;43.10;31.60;101351.81;5132924;27;20177;-73
2022/10/11 08:31:05;;;;;;;5.43;2.97;;;;;;;43.13;31.60;101356.59;5132904;27;20503;-73
2022/10/11 08:33:31;;;;;;;7.50;3.67;;;;;;;43.15;31.58;101365.25;5134399;27;20626;-73
2022/10/11 08:35:58;;;;;;;5.20;2.67;;;;;;;43.06;31.60;101362.59;5134330;27;20446;-72
2022/10/11 08:38:24;;;;;;;6.70;2.67;;;;;;;43.16;31.71;101364.16;5132867;27;20411;-73
2022/10/11 08:40:56;;;;;;;8.47;2.90;;;;;;;43.10;31.50;101363.53;5132489;27;20834;-73
2022/10/11 08:43:40;;;;;;;7.83;3.10;;;;;;;43.02;31.63;101374.50;5132758;27;20419;-73
2022/10/11 08:46:07;;;;;;;7.50;3.33;;;;;;;43.14;31.36;101372.66;5132571;27;20483;-73
2022/10/11 08:48:46;;;;;;;5.47;3.47;;;;;;;43.13;31.52;101370.25;5132581;27;20439;-73
2022/10/11 08:51:35;;;;;;;11.40;3.60;;;;;;;43.09;31.87;101378.31;5132501;27;20411;-73
2022/10/11 08:54:13;;;;;;;8.60;3.27;;;;;;;43.28;31.34;101386.09;5132462;27;20856;-73
2022/10/11 08:56:42;;;;;;;9.60;3.70;;;;;;;43.39;30.93;101376.38;5132466;27;20541;-73
2022/10/11 08:59:11;;;;;;;5.80;2.80;;;;;;;43.39;30.97;101378.31;5133662;27;20537;-73
2022/10/11 09:01:45;;;;;;;10.57;3.97;;;;;;;43.37;30.82;101375.09;5132347;27;20458;-73
2022/10/11 09:04:16;;;;;;;5.93;2.70;;;;;;;43.38;31.42;101373.94;5132627;27;20896;-73
2022/10/11 09:06:54;;;;;;;8.83;4.60;;;;;;;43.38;31.35;101379.41;5132376;27;20411;-73
2022/10/11 09:09:32;;;;;;;8.73;5.17;;;;;;;43.41;31.28;101389.72;5132266;27;20985;-73
2022/10/11 09:12:46;;;;;;;8.00;6.43;;;;;;;43.46;31.43;101381.28;5131815;27;20418;-73
2022/10/11 09:15:33;;;;;;;6.97;3.43;;;;;;;43.66;31.16;101385.19;5132081;27;21009;-73
2022/10/11 09:18:24;;;;;;;6.60;2.90;;;;;;;43.56;31.11;101380.91;5132226;27;20449;-73
2022/10/11 09:21:09;;;;;;;8.50;3.10;;;;;;;43.51;31.11;101378.38;5132157;28;20859;-78
2022/10/11 09:23:46;;;;;;;7.20;4.07;;;;;;;43.29;31.15;101374.03;5132050;28;20467;-79
2022/10/11 09:26:29;;;;;;;7.43;4.57;;;;;;;43.07;30.96;101364.19;5132467;28;20407;-79
2022/10/11 09:29:15;;;;;;;6.03;3.40;;;;;;;43.32;30.88;101370.59;5133716;27;20399;-78
2022/10/11 09:31:47;;;;;;;9.30;3.90;;;;;;;43.51;30.24;101366.66;5133085;28;20967;-77
2022/10/11 09:34:15;;;;;;;9.30;3.83;;;;;;;43.55;30.32;101367.59;5132092;28;20461;-77
2022/10/11 09:37:36;;;;;;;14.13;4.03;;;;;;;43.60;30.37;101364.66;5132053;28;20527;-77
2022/10/11 09:40:02;;;;;;;5.63;3.40;;;;;;;43.41;30.68;101378.78;5100564;28;20514;-76
2022/10/11 09:42:28;;;;;;;5.60;2.90;;;;;;;43.64;30.41;101371.03;5132056;28;20563;-76
2022/10/11 09:44:56;;;;;;;8.50;4.03;;;;;;;43.72;30.25;101372.91;5133591;27;20162;-78
2022/10/11 09:47:27;;;;;;;9.80;4.27;;;;;;;43.86;30.25;101367.97;5132038;28;20184;-78
2022/10/11 09:50:03;;;;;;;6.20;2.93;;;;;;;43.57;30.32;101368.84;5131977;28;20449;-77
2022/10/11 09:52:29;;;;;;;9.73;2.70;;;;;;;43.80;30.07;101374.78;5131984;28;20507;-74
2022/10/11 09:54:59;;;;;;;8.77;4.03;;;;;;;43.50;30.42;101367.78;5131896;28;20458;-75
2022/10/11 09:57:34;;;;;;;8.07;3.80;;;;;;;43.72;30.04;101370.19;5131724;28;20787;-75
2022/10/11 10:00:20;;;;;;;8.13;3.83;;;;;;;43.87;29.81;101372.31;5131846;28;20418;-75
2022/10/11 10:02:47;;;;;;;6.57;3.20;;;;;;;43.96;30.00;101373.03;5133592;27;20455;-76
2022/10/11 10:05:20;;;;;;;7.30;2.93;;;;;;;44.01;29.64;101374.75;5131784;28;20460;-75
2022/10/11 10:08:08;;;;;;;6.00;2.80;;;;;;;43.96;30.38;101370.31;5133430;27;20469;-76
2022/10/11 10:10:37;;;;;;;6.30;3.10;;;;;;;44.09;29.53;101365.66;5131570;28;20422;-75
2022/10/11 10:13:05;;;;;;;20.60;3.47;;;;;;;44.23;29.67;101363.44;5131830;28;20414;-75
2022/10/11 10:15:35;;;;;;;5.60;3.07;;;;;;;44.30;29.31;101354.69;5131226;28;20478;-75
2022/10/11 10:18:02;;;;;;;6.07;2.83;;;;;;;44.08;30.18;101353.16;5133349;27;20486;-77
2022/10/11 10:20:35;;;;;;;7.23;2.97;;;;;;;44.05;29.43;101356.53;5131682;28;20413;-75
2022/10/11 10:23:34;;;;;;;8.70;3.60;;;;;;;44.04;30.06;101351.41;5131530;27;20415;-74
2022/10/11 10:26:17;;;;;;;8.57;3.30;;;;;;;44.35;29.76;101343.53;5133051;27;20488;-74
2022/10/11 10:29:07;;;;;;;11.07;5.00;;;;;;;43.88;29.63;101338.38;5135320;27;20417;-75
2022/10/11 10:31:49;;;;;;;8.97;3.50;;;;;;;44.26;29.29;101345.56;5135185;27;20962;-75
2022/10/11 10:34:20;;;;;;;7.93;3.30;;;;;;;44.30;29.19;101330.06;5135221;27;20470;-74
2022/10/11 10:36:55;;;;;;;7.30;3.40;;;;;;;44.33;29.47;101328.59;5136798;27;20490;-75
2022/10/11 10:39:42;;;;;;;5.90;3.10;;;;;;;44.38;29.15;101322.88;5135172;27;20454;-75
2022/10/11 10:42:15;;;;;;;8.40;2.83;;;;;;;44.43;29.19;101319.94;5135013;27;20437;-74
2022/10/11 10:44:42;;;;;;;6.00;3.03;;;;;;;44.20;29.43;101311.38;5135078;27;20429;-74
2022/10/11 10:47:31;;;;;;;7.30;3.63;;;;;;;44.46;28.99;101319.25;5136515;27;20414;-74
2022/10/11 10:50:20;;;;;;;5.93;2.90;;;;;;;44.46;29.28;101320.06;5134936;27;20435;-75
2022/10/11 10:53:21;;;;;;;6.63;2.90;;;;;;;44.15;29.62;101309.63;5134904;27;20415;-75
2022/10/11 10:55:53;;;;;;;7.10;3.60;;;;;;;44.53;29.08;101296.81;5102829;27;20545;-75
2022/10/11 10:58:22;;;;;;;5.10;2.77;;;;;;;44.37;29.07;101311.16;5134653;27;20465;-75
2022/10/11 11:00:52;;;;;;;9.00;2.90;;;;;;;44.70;28.38;101299.34;5134769;27;20479;-75
2022/10/11 11:03:28;;;;;;;8.13;3.40;;;;;;;44.68;28.32;101299.66;5134435;27;20434;-76
2022/10/11 11:06:03;;;;;;;7.63;3.20;;;;;;;44.76;28.43;101297.97;5136277;27;20766;-76
2022/10/11 11:08:47;;;;;;;5.60;3.17;;;;;;;44.61;28.89;101293.19;5134613;27;20442;-76
2022/10/11 11:11:46;;;;;;;8.23;2.83;;;;;;;44.87;28.56;101284.59;5134491;27;20584;-76
2022/10/11 11:14:22;;;;;;;8.90;3.13;;;;;;;44.52;28.96;101276.88;5134527;27;20498;-76
2022/10/11 11:17:12;;;;;;;8.30;3.87;;;;;;;44.27;29.42;101272.53;5134266;27;20438;-76
2022/10/11 11:19:55;;;;;;;6.37;3.90;;;;;;;44.52;29.08;101265.13;5134244;27;20426;-74
2022/10/11 11:22:49;;;;;;;7.23;3.40;;;;;;;44.23;29.22;101270.47;5134296;27;20822;-74
2022/10/11 11:25:28;;;;;;;8.77;3.70;;;;;;;44.47;29.14;101271.63;5134466;27;20474;-74
2022/10/11 11:28:23;;;;;;;8.23;3.67;;;;;;;44.65;28.93;101258.53;5134106;27;20431;-77
2022/10/11 11:30:52;;;;;;;7.40;4.20;;;;;;;44.75;29.06;101258.03;5099376;27;20434;-76
2022/10/11 11:33:47;;;;;;;5.63;2.63;;;;;;;44.70;28.70;101245.41;5133871;27;20446;-76
2022/10/11 11:36:30;;;;;;;8.03;4.50;;;;;;;44.66;29.16;101240.97;5133682;27;20451;-76
2022/10/11 11:39:01;;;;;;;11.27;6.30;;;;;;;44.27;29.66;101242.44;5133794;27;20958;-75